createdAt,value
2023-04-17T00:00:25.890Z,72.34
2023-04-17T00:01:25.871Z,72.34
2023-04-17T00:02:26.082Z,72.34
2023-04-17T00:03:25.938Z,72.34
2023-04-17T00:04:25.993Z,72.34
2023-04-17T00:05:25.864Z,72.34
2023-04-17T00:06:25.806Z,72.34
2023-04-17T00:07:25.790Z,72.34
2023-04-17T00:08:25.777Z,72.34
2023-04-17T00:09:25.762Z,72.34
2023-04-17T00:10:25.750Z,72.34
2023-04-17T00:11:25.736Z,72.34
2023-04-17T00:12:25.756Z,72.34
2023-04-17T00:13:25.708Z,72.34
2023-04-17T00:14:25.699Z,72.34
2023-04-17T00:15:25.681Z,72.34
2023-04-17T00:16:25.684Z,72.34
2023-04-17T00:17:25.672Z,72.34
2023-04-17T00:18:25.645Z,72.34
2023-04-17T00:19:25.650Z,72.34
2023-04-17T00:20:25.619Z,72.34
2023-04-17T00:21:25.609Z,72.34
2023-04-17T00:22:25.610Z,72.34
2023-04-17T00:23:25.585Z,72.34
2023-04-17T00:24:25.564Z,72.34
2023-04-17T00:25:25.549Z,72.34
2023-04-17T00:26:25.538Z,72.34
2023-04-17T00:27:25.522Z,72.34
2023-04-17T00:28:25.555Z,72.34
2023-04-17T00:29:25.511Z,72.34
2023-04-17T00:30:25.501Z,72.34
2023-04-17T00:32:00.508Z,72.34
2023-04-17T00:33:00.449Z,72.34
2023-04-17T00:34:00.401Z,72.34
2023-04-17T00:35:00.385Z,72.34
2023-04-17T00:36:00.372Z,72.34
2023-04-17T00:37:00.365Z,72.34
2023-04-17T00:38:00.370Z,72.34
2023-04-17T00:39:00.330Z,72.44
2023-04-17T00:40:00.328Z,72.34
2023-04-17T00:41:00.310Z,72.34
2023-04-17T00:42:00.291Z,72.34
2023-04-17T00:43:00.278Z,72.44
2023-04-17T00:44:00.298Z,72.34
2023-04-17T00:45:00.272Z,72.34
2023-04-17T00:46:00.280Z,72.34
2023-04-17T00:47:00.228Z,72.34
2023-04-17T00:48:00.314Z,72.34
2023-04-17T00:49:00.196Z,72.34
2023-04-17T00:50:00.267Z,72.34
2023-04-17T00:51:00.172Z,72.34
2023-04-17T00:52:00.158Z,72.34
2023-04-17T00:53:00.147Z,72.34
2023-04-17T00:54:00.136Z,72.34
2023-04-17T00:55:00.269Z,72.44
2023-04-17T00:56:00.178Z,72.34
2023-04-17T00:57:00.125Z,72.34
2023-04-17T00:58:00.168Z,72.34
2023-04-17T00:59:00.080Z,72.34
2023-04-17T01:00:00.193Z,72.34
2023-04-17T01:01:00.194Z,72.34
2023-04-17T01:02:00.158Z,72.34
2023-04-17T01:03:00.191Z,72.44
2023-04-17T01:04:00.252Z,72.44
2023-04-17T01:04:59.986Z,72.34
2023-04-17T01:05:59.970Z,72.44
2023-04-17T01:06:59.959Z,72.44
2023-04-17T01:07:59.942Z,72.44
2023-04-17T01:08:59.932Z,72.34
2023-04-17T01:09:59.916Z,72.34
2023-04-17T01:10:59.905Z,72.44
2023-04-17T01:11:59.891Z,72.44
2023-04-17T01:12:59.878Z,72.34
2023-04-17T01:13:59.866Z,72.44
2023-04-17T01:14:59.855Z,72.44
2023-04-17T01:15:59.873Z,72.44
2023-04-17T01:16:59.858Z,72.44
2023-04-17T01:17:59.849Z,72.44
2023-04-17T01:18:59.798Z,72.44
2023-04-17T01:19:59.789Z,72.44
2023-04-17T01:20:59.774Z,72.44
2023-04-17T01:21:59.761Z,72.34
2023-04-17T01:22:59.748Z,72.44
2023-04-17T01:23:59.736Z,72.34
2023-04-17T01:24:59.717Z,72.44
2023-04-17T01:25:59.701Z,72.34
2023-04-17T01:26:59.696Z,72.34
2023-04-17T01:27:59.677Z,72.34
2023-04-17T01:28:59.666Z,72.34
2023-04-17T01:29:59.659Z,72.34
2023-04-17T01:30:59.661Z,72.34
2023-04-17T01:31:59.644Z,72.34
2023-04-17T01:32:59.704Z,72.34
2023-04-17T01:33:59.597Z,72.44
2023-04-17T01:34:59.583Z,72.34
2023-04-17T01:35:59.567Z,72.34
2023-04-17T01:36:59.561Z,72.34
2023-04-17T01:37:59.554Z,72.34
2023-04-17T01:38:59.529Z,72.34
2023-04-17T01:39:59.524Z,72.34
2023-04-17T01:40:59.504Z,72.34
2023-04-17T01:41:59.491Z,72.34
2023-04-17T01:42:59.481Z,72.34
2023-04-17T01:43:59.462Z,72.44
2023-04-17T01:44:59.450Z,72.44
2023-04-17T01:45:59.488Z,72.34
2023-04-17T01:46:59.435Z,72.34
2023-04-17T01:47:59.499Z,72.34
2023-04-17T01:48:59.396Z,72.44
2023-04-17T01:49:59.386Z,72.44
2023-04-17T01:50:59.367Z,72.44
2023-04-17T01:51:59.363Z,72.34
2023-04-17T01:52:59.347Z,72.34
2023-04-17T01:53:59.329Z,72.44
2023-04-17T01:54:59.322Z,72.44
2023-04-17T01:55:59.304Z,72.34
2023-04-17T01:56:59.297Z,72.34
2023-04-17T01:57:59.284Z,72.44
2023-04-17T01:58:59.264Z,72.44
2023-04-17T01:59:59.252Z,72.44
2023-04-17T02:00:59.247Z,72.34
2023-04-17T02:01:59.428Z,72.44
2023-04-17T02:02:59.281Z,72.34
2023-04-17T02:03:59.490Z,72.44
2023-04-17T02:04:59.183Z,72.44
2023-04-17T02:05:59.167Z,72.34
2023-04-17T02:06:59.160Z,72.44
2023-04-17T02:07:59.151Z,72.34
2023-04-17T02:08:59.128Z,72.44
2023-04-17T02:09:59.114Z,72.44
2023-04-17T02:10:59.103Z,72.44
2023-04-17T02:11:59.087Z,72.44
2023-04-17T02:12:59.080Z,72.44
2023-04-17T02:13:59.061Z,72.34
2023-04-17T02:15:05.057Z,72.44
2023-04-17T02:15:59.095Z,72.44
2023-04-17T02:16:59.019Z,72.44
2023-04-17T02:17:59.063Z,72.44
2023-04-17T02:18:58.992Z,72.44
2023-04-17T02:19:59.003Z,72.34
2023-04-17T02:20:58.969Z,72.34
2023-04-17T02:21:58.959Z,72.34
2023-04-17T02:22:58.942Z,72.34
2023-04-17T02:23:58.932Z,72.34
2023-04-17T02:24:58.915Z,72.44
2023-04-17T02:25:58.899Z,72.44
2023-04-17T02:26:58.887Z,72.44
2023-04-17T02:27:58.873Z,72.34
2023-04-17T02:28:58.860Z,72.34
2023-04-17T02:29:58.849Z,72.34
2023-04-17T02:30:58.847Z,72.34
2023-04-17T02:31:58.817Z,72.34
2023-04-17T02:32:58.857Z,72.34
2023-04-17T02:33:58.792Z,72.44
2023-04-17T02:34:58.781Z,72.44
2023-04-17T02:35:58.791Z,72.44
2023-04-17T02:36:58.753Z,72.44
2023-04-17T02:37:58.740Z,72.44
2023-04-17T02:38:58.728Z,72.44
2023-04-17T02:39:58.713Z,72.44
2023-04-17T02:40:58.708Z,72.44
2023-04-17T02:41:58.687Z,72.44
2023-04-17T02:43:04.681Z,72.44
2023-04-17T02:43:58.662Z,72.44
2023-04-17T02:44:58.649Z,72.44
2023-04-17T02:45:58.644Z,72.44
2023-04-17T02:46:58.659Z,72.44
2023-04-17T02:47:58.832Z,72.44
2023-04-17T02:48:58.600Z,72.44
2023-04-17T02:49:58.588Z,72.44
2023-04-17T02:50:58.577Z,72.44
2023-04-17T02:51:58.579Z,72.44
2023-04-17T02:52:58.546Z,72.44
2023-04-17T02:53:58.529Z,72.44
2023-04-17T02:54:58.532Z,72.44
2023-04-17T02:55:58.502Z,72.44
2023-04-17T02:56:58.492Z,72.44
2023-04-17T02:57:58.476Z,72.44
2023-04-17T02:58:58.466Z,72.44
2023-04-17T02:59:58.451Z,72.44
2023-04-17T03:00:58.498Z,72.44
2023-04-17T03:01:58.488Z,72.44
2023-04-17T03:02:58.457Z,72.44
2023-04-17T03:03:58.603Z,72.44
2023-04-17T03:04:58.386Z,72.44
2023-04-17T03:06:01.373Z,72.44
2023-04-17T03:06:58.359Z,72.44
2023-04-17T03:07:58.370Z,72.44
2023-04-17T03:08:58.333Z,72.54
2023-04-17T03:09:58.317Z,72.44
2023-04-17T03:10:58.304Z,72.54
2023-04-17T03:11:58.293Z,72.54
2023-04-17T03:12:58.281Z,72.54
2023-04-17T03:13:58.270Z,72.44
2023-04-17T03:14:58.257Z,72.44
2023-04-17T03:15:58.251Z,72.44
2023-04-17T03:16:58.292Z,72.54
2023-04-17T03:17:58.234Z,72.54
2023-04-17T03:18:58.202Z,72.54
2023-04-17T03:19:58.189Z,72.54
2023-04-17T03:20:58.180Z,72.54
2023-04-17T03:21:59.673Z,72.54
2023-04-17T03:22:58.152Z,72.54
2023-04-17T03:23:58.264Z,72.54
2023-04-17T03:24:58.122Z,72.54
2023-04-17T03:25:58.103Z,72.54
2023-04-17T03:26:58.096Z,72.54
2023-04-17T03:27:58.081Z,72.54
2023-04-17T03:28:58.068Z,72.54
2023-04-17T03:29:58.060Z,72.54
2023-04-17T03:30:58.043Z,72.54
2023-04-17T03:31:58.057Z,72.54
2023-04-17T03:32:58.050Z,72.54
2023-04-17T03:33:58.002Z,72.54
2023-04-17T03:34:57.995Z,72.65
2023-04-17T03:35:57.976Z,72.65
2023-04-17T03:36:57.962Z,72.54
2023-04-17T03:37:57.953Z,72.54
2023-04-17T03:38:57.940Z,72.54
2023-04-17T03:39:57.946Z,72.54
2023-04-17T03:40:57.908Z,72.54
2023-04-17T03:41:57.895Z,72.54
2023-04-17T03:42:57.882Z,72.54
2023-04-17T03:43:57.872Z,72.54
2023-04-17T03:44:57.856Z,72.54
2023-04-17T03:45:57.874Z,72.54
2023-04-17T03:46:57.830Z,72.54
2023-04-17T03:47:57.889Z,72.54
2023-04-17T03:48:57.802Z,72.54
2023-04-17T03:49:57.795Z,72.65
2023-04-17T03:50:57.776Z,72.65
2023-04-17T03:51:57.773Z,72.65
2023-04-17T03:52:57.746Z,72.65
2023-04-17T03:53:57.730Z,72.65
2023-04-17T03:54:57.724Z,72.65
2023-04-17T03:55:57.734Z,72.65
2023-04-17T03:56:57.704Z,72.65
2023-04-17T03:57:57.699Z,72.65
2023-04-17T03:58:57.664Z,72.65
2023-04-17T03:59:57.662Z,72.65
2023-04-17T04:00:57.638Z,72.65
2023-04-17T04:01:57.683Z,72.65
2023-04-17T04:02:57.771Z,72.65
2023-04-17T04:03:57.725Z,72.65
2023-04-17T04:04:57.627Z,72.65
2023-04-17T04:05:57.570Z,72.65
2023-04-17T04:06:57.645Z,72.65
2023-04-17T04:07:57.541Z,72.65
2023-04-17T04:08:57.526Z,72.65
2023-04-17T04:09:57.514Z,72.65
2023-04-17T04:10:57.505Z,72.65
2023-04-17T04:11:57.519Z,72.65
2023-04-17T04:12:57.491Z,72.65
2023-04-17T04:13:57.461Z,72.65
2023-04-17T04:14:57.455Z,72.65
2023-04-17T04:15:57.486Z,72.65
2023-04-17T04:16:57.430Z,72.54
2023-04-17T04:17:57.429Z,72.54
2023-04-17T04:18:57.404Z,72.65
2023-04-17T04:19:57.384Z,72.65
2023-04-17T04:20:57.365Z,72.54
2023-04-17T04:21:57.352Z,72.54
2023-04-17T04:22:57.362Z,72.54
2023-04-17T04:23:57.322Z,72.54
2023-04-17T04:24:57.313Z,72.54
2023-04-17T04:25:57.305Z,72.54
2023-04-17T04:26:57.285Z,72.54
2023-04-17T04:27:57.296Z,72.54
2023-04-17T04:28:57.278Z,72.54
2023-04-17T04:29:57.245Z,72.54
2023-04-17T04:30:57.243Z,72.54
2023-04-17T04:31:57.349Z,72.54
2023-04-17T04:32:57.258Z,72.54
2023-04-17T04:33:57.212Z,72.54
2023-04-17T04:34:57.180Z,72.54
2023-04-17T04:35:57.179Z,72.54
2023-04-17T04:36:57.152Z,72.54
2023-04-17T04:37:57.140Z,72.54
2023-04-17T04:38:57.128Z,72.54
2023-04-17T04:39:57.113Z,72.65
2023-04-17T04:40:57.102Z,72.54
2023-04-17T04:41:57.086Z,72.54
2023-04-17T04:42:57.083Z,72.54
2023-04-17T04:43:57.215Z,72.54
2023-04-17T04:44:57.055Z,72.54
2023-04-17T04:45:57.034Z,72.54
2023-04-17T04:46:57.061Z,72.54
2023-04-17T04:47:57.048Z,72.54
2023-04-17T04:48:56.994Z,72.54
2023-04-17T04:49:56.980Z,72.54
2023-04-17T04:50:56.971Z,72.54
2023-04-17T04:51:56.952Z,72.54
2023-04-17T04:52:56.941Z,72.54
2023-04-17T04:53:56.927Z,72.54
2023-04-17T04:54:56.920Z,72.54
2023-04-17T04:55:56.898Z,72.54
2023-04-17T04:56:56.896Z,72.54
2023-04-17T04:57:56.873Z,72.54
2023-04-17T04:58:56.861Z,72.54
2023-04-17T04:59:56.867Z,72.54
2023-04-17T05:00:56.839Z,72.54
2023-04-17T05:01:56.876Z,72.54
2023-04-17T05:02:57.005Z,72.54
2023-04-17T05:03:57.042Z,72.54
2023-04-17T05:04:56.839Z,72.65
2023-04-17T05:05:56.768Z,72.54
2023-04-17T05:06:56.757Z,72.54
2023-04-17T05:07:56.739Z,72.54
2023-04-17T05:08:56.731Z,72.54
2023-04-17T05:09:56.716Z,72.54
2023-04-17T05:10:56.707Z,72.54
2023-04-17T05:11:56.690Z,72.54
2023-04-17T05:12:56.679Z,72.54
2023-04-17T05:13:56.665Z,72.54
2023-04-17T05:14:56.652Z,72.54
2023-04-17T05:15:56.712Z,72.54
2023-04-17T05:16:56.633Z,72.54
2023-04-17T05:17:56.640Z,72.54
2023-04-17T05:18:56.613Z,72.54
2023-04-17T05:19:56.607Z,72.54
2023-04-17T05:20:56.572Z,72.54
2023-04-17T05:21:56.562Z,72.54
2023-04-17T05:22:56.548Z,72.54
2023-04-17T05:23:56.533Z,72.54
2023-04-17T05:24:56.518Z,72.54
2023-04-17T05:25:56.508Z,72.54
2023-04-17T05:26:56.493Z,72.54
2023-04-17T05:27:56.481Z,72.54
2023-04-17T05:28:56.466Z,72.54
2023-04-17T05:29:56.454Z,72.54
2023-04-17T05:30:56.442Z,72.54
2023-04-17T05:31:56.690Z,72.44
2023-04-17T05:32:56.444Z,72.44
2023-04-17T05:33:56.403Z,72.44
2023-04-17T05:34:56.385Z,72.44
2023-04-17T05:35:56.548Z,72.44
2023-04-17T05:36:56.376Z,72.44
2023-04-17T05:37:56.345Z,72.44
2023-04-17T05:38:56.330Z,72.44
2023-04-17T05:39:56.325Z,72.44
2023-04-17T05:40:56.304Z,72.34
2023-04-17T05:41:56.305Z,72.34
2023-04-17T05:42:56.276Z,72.34
2023-04-17T05:43:56.265Z,72.34
2023-04-17T05:44:56.250Z,72.34
2023-04-17T05:45:56.334Z,72.34
2023-04-17T05:46:56.221Z,72.34
2023-04-17T05:47:56.284Z,72.34
2023-04-17T05:48:56.207Z,72.34
2023-04-17T05:49:56.183Z,72.34
2023-04-17T05:50:56.168Z,72.34
2023-04-17T05:51:56.154Z,72.34
2023-04-17T05:52:56.137Z,72.34
2023-04-17T05:53:56.150Z,72.34
2023-04-17T05:54:56.114Z,72.24
2023-04-17T05:55:56.105Z,72.24
2023-04-17T05:56:56.091Z,72.24
2023-04-17T05:57:58.139Z,72.24
2023-04-17T05:58:56.060Z,72.24
2023-04-17T05:59:56.052Z,72.24
2023-04-17T06:00:56.066Z,72.24
2023-04-17T06:01:56.122Z,72.24
2023-04-17T06:02:56.354Z,72.24
2023-04-17T06:03:56.237Z,72.24
2023-04-17T06:04:56.121Z,72.24
2023-04-17T06:05:56.027Z,72.24
2023-04-17T06:06:55.954Z,72.24
2023-04-17T06:07:55.945Z,72.24
2023-04-17T06:08:55.931Z,72.24
2023-04-17T06:09:55.917Z,72.24
2023-04-17T06:10:55.904Z,72.24
2023-04-17T06:11:55.944Z,72.13
2023-04-17T06:12:55.879Z,72.13
2023-04-17T06:13:55.864Z,72.13
2023-04-17T06:14:55.852Z,72.13
2023-04-17T06:15:55.841Z,72.13
2023-04-17T06:16:55.862Z,72.13
2023-04-17T06:17:55.846Z,72.03
2023-04-17T06:18:55.796Z,72.03
2023-04-17T06:19:55.822Z,72.03
2023-04-17T06:20:55.769Z,72.03
2023-04-17T06:21:55.760Z,72.03
2023-04-17T06:22:55.745Z,72.03
2023-04-17T06:23:55.730Z,72.03
2023-04-17T06:24:55.715Z,71.92
2023-04-17T06:25:55.702Z,71.92
2023-04-17T06:26:55.690Z,71.92
2023-04-17T06:27:55.677Z,71.92
2023-04-17T06:28:55.661Z,71.92
2023-04-17T06:29:55.655Z,71.92
2023-04-17T06:30:55.696Z,71.92
2023-04-17T06:31:55.624Z,71.92
2023-04-17T06:32:55.665Z,72.03
2023-04-17T06:33:55.599Z,71.92
2023-04-17T06:34:59.332Z,72.03
2023-04-17T06:35:55.592Z,71.92
2023-04-17T06:36:55.670Z,71.92
2023-04-17T06:37:55.570Z,71.92
2023-04-17T06:38:55.528Z,71.92
2023-04-17T06:39:55.518Z,71.92
2023-04-17T06:40:55.514Z,71.92
2023-04-17T06:41:55.494Z,71.92
2023-04-17T06:42:55.475Z,71.92
2023-04-17T06:43:55.494Z,71.89
2023-04-17T06:44:55.449Z,71.92
2023-04-17T06:45:55.452Z,71.92
2023-04-17T06:46:55.422Z,71.79
2023-04-17T06:47:55.466Z,71.79
2023-04-17T06:48:55.396Z,71.79
2023-04-17T06:49:55.446Z,71.79
2023-04-17T06:50:55.366Z,71.79
2023-04-17T06:51:55.382Z,71.79
2023-04-17T06:52:55.342Z,71.89
2023-04-17T06:53:55.332Z,71.92
2023-04-17T06:54:55.335Z,71.89
2023-04-17T06:55:55.303Z,71.89
2023-04-17T06:56:55.287Z,71.92
2023-04-17T06:57:55.291Z,71.89
2023-04-17T06:58:55.260Z,71.92
2023-04-17T06:59:55.254Z,71.89
2023-04-17T07:00:55.233Z,71.89
2023-04-17T07:01:55.290Z,71.89
2023-04-17T07:02:55.323Z,72.00
2023-04-17T07:03:55.307Z,72.10
2023-04-17T07:04:55.278Z,72.13
2023-04-17T07:05:55.167Z,72.10
2023-04-17T07:06:55.150Z,72.10
2023-04-17T07:07:55.176Z,72.10
2023-04-17T07:08:55.725Z,72.10
2023-04-17T07:09:55.113Z,72.10
2023-04-17T07:10:55.098Z,72.10
2023-04-17T07:11:55.089Z,72.10
2023-04-17T07:12:55.086Z,72.10
2023-04-17T07:13:55.074Z,72.10
2023-04-17T07:14:55.044Z,72.10
2023-04-17T07:15:55.192Z,72.10
2023-04-17T07:16:55.088Z,72.10
2023-04-17T07:17:55.045Z,72.10
2023-04-17T07:18:54.999Z,72.10
2023-04-17T07:19:54.985Z,72.10
2023-04-17T07:20:54.963Z,72.20
2023-04-17T07:21:54.966Z,72.20
2023-04-17T07:22:54.937Z,72.20
2023-04-17T07:23:55.061Z,72.20
2023-04-17T07:24:54.915Z,72.20
2023-04-17T07:25:54.895Z,72.20
2023-04-17T07:26:54.882Z,72.20
2023-04-17T07:27:54.866Z,72.10
2023-04-17T07:28:54.876Z,72.10
2023-04-17T07:29:54.916Z,72.10
2023-04-17T07:30:54.830Z,72.10
2023-04-17T07:31:54.858Z,72.00
2023-04-17T07:32:54.825Z,72.00
2023-04-17T07:33:54.792Z,72.10
2023-04-17T07:34:54.773Z,72.00
2023-04-17T07:35:54.768Z,72.00
2023-04-17T07:36:54.748Z,72.00
2023-04-17T07:37:54.737Z,72.00
2023-04-17T07:38:54.725Z,72.00
2023-04-17T07:39:54.819Z,72.00
2023-04-17T07:40:54.698Z,72.00
2023-04-17T07:41:54.685Z,72.00
2023-04-17T07:42:54.665Z,71.89
2023-04-17T07:43:55.238Z,71.89
2023-04-17T07:44:54.641Z,71.89
2023-04-17T07:45:54.629Z,71.89
2023-04-17T07:46:54.645Z,71.89
2023-04-17T07:47:54.616Z,71.89
2023-04-17T07:48:54.602Z,71.89
2023-04-17T07:49:54.576Z,71.89
2023-04-17T07:50:54.570Z,71.79
2023-04-17T07:51:54.568Z,71.79
2023-04-17T07:52:54.593Z,71.79
2023-04-17T07:53:54.545Z,71.79
2023-04-17T07:54:54.512Z,71.79
2023-04-17T07:55:54.811Z,71.79
2023-04-17T07:57:00.491Z,71.79
2023-04-17T07:57:54.466Z,71.79
2023-04-17T07:58:54.458Z,71.79
2023-04-17T07:59:54.444Z,71.79
2023-04-17T08:00:54.432Z,71.79
2023-04-17T08:01:54.519Z,71.79
2023-04-17T08:02:54.569Z,71.79
2023-04-17T08:03:54.565Z,71.89
2023-04-17T08:04:54.480Z,71.89
2023-04-17T08:05:54.478Z,71.89
2023-04-17T08:06:54.365Z,71.89
2023-04-17T08:07:54.340Z,72.00
2023-04-17T08:08:54.321Z,72.00
2023-04-17T08:09:54.311Z,72.00
2023-04-17T08:10:54.291Z,72.00
2023-04-17T08:11:57.633Z,72.00
2023-04-17T08:12:54.266Z,72.00
2023-04-17T08:13:54.257Z,72.00
2023-04-17T08:14:54.242Z,72.00
2023-04-17T08:15:54.275Z,72.00
2023-04-17T08:16:54.260Z,72.00
2023-04-17T08:17:54.252Z,72.00
2023-04-17T08:18:54.191Z,72.00
2023-04-17T08:19:54.176Z,72.00
2023-04-17T08:20:54.161Z,72.00
2023-04-17T08:21:54.144Z,72.10
2023-04-17T08:22:54.142Z,72.00
2023-04-17T08:23:54.119Z,72.00
2023-04-17T08:24:54.107Z,72.10
2023-04-17T08:25:54.106Z,72.10
2023-04-17T08:26:54.074Z,72.10
2023-04-17T08:27:54.196Z,72.00
2023-04-17T08:28:54.054Z,72.00
2023-04-17T08:29:54.050Z,72.00
2023-04-17T08:30:54.077Z,72.00
2023-04-17T08:32:06.528Z,72.00
2023-04-17T08:32:55.074Z,71.89
2023-04-17T08:34:02.810Z,71.79
2023-04-17T08:34:55.017Z,71.79
2023-04-17T08:35:54.023Z,71.69
2023-04-17T08:36:53.950Z,71.69
2023-04-17T08:37:53.935Z,71.69
2023-04-17T08:38:53.921Z,71.69
2023-04-17T08:39:53.914Z,71.59
2023-04-17T08:40:53.896Z,71.59
2023-04-17T08:41:53.882Z,71.59
2023-04-17T08:42:53.876Z,71.49
2023-04-17T08:43:53.914Z,71.49
2023-04-17T08:44:53.840Z,71.49
2023-04-17T08:45:54.173Z,71.49
2023-04-17T08:46:53.811Z,71.49
2023-04-17T08:47:53.854Z,71.49
2023-04-17T08:48:53.838Z,71.38
2023-04-17T08:49:53.774Z,71.35
2023-04-17T08:50:53.790Z,71.35
2023-04-17T08:51:53.749Z,71.25
2023-04-17T08:52:53.741Z,71.38
2023-04-17T08:53:53.719Z,71.25
2023-04-17T08:54:53.720Z,71.25
2023-04-17T08:55:53.704Z,71.25
2023-04-17T08:56:53.681Z,71.14
2023-04-17T08:57:53.675Z,70.84
2023-04-17T08:58:53.660Z,70.84
2023-04-17T08:59:53.705Z,71.04
2023-04-17T09:00:53.640Z,70.94
2023-04-17T09:01:53.676Z,70.94
2023-04-17T09:02:53.749Z,70.94
2023-04-17T09:03:53.751Z,70.94
2023-04-17T09:04:53.684Z,70.43
2023-04-17T09:05:53.560Z,70.43
2023-04-17T09:06:53.544Z,70.22
2023-04-17T09:07:53.532Z,70.43
2023-04-17T09:08:53.531Z,69.30
2023-04-17T09:09:53.529Z,69.20
2023-04-17T09:10:53.490Z,69.81
2023-04-17T09:11:53.516Z,69.81
2023-04-17T09:12:53.476Z,70.53
2023-04-17T09:13:53.458Z,70.73
2023-04-17T09:14:53.442Z,70.63
2023-04-17T09:15:53.487Z,70.33
2023-04-17T09:16:53.407Z,70.43
2023-04-17T09:17:53.443Z,70.63
2023-04-17T09:18:53.385Z,70.73
2023-04-17T09:19:53.385Z,70.63
2023-04-17T09:20:53.369Z,70.84
2023-04-17T09:21:53.348Z,70.73
2023-04-17T09:22:53.330Z,70.33
2023-04-17T09:23:53.319Z,70.53
2023-04-17T09:24:53.304Z,70.63
2023-04-17T09:25:53.292Z,70.02
2023-04-17T09:26:53.282Z,69.92
2023-04-17T09:27:53.268Z,69.71
2023-04-17T09:28:53.253Z,68.68
2023-04-17T09:29:53.237Z,68.59
2023-04-17T09:30:53.241Z,68.59
2023-04-17T09:31:53.265Z,67.77
2023-04-17T09:32:53.233Z,67.56
2023-04-17T09:33:53.190Z,67.15
2023-04-17T09:34:53.190Z,67.26
2023-04-17T09:35:53.160Z,67.46
2023-04-17T09:36:53.143Z,66.74
2023-04-17T09:37:53.170Z,66.85
2023-04-17T09:38:53.133Z,67.15
2023-04-17T09:39:53.112Z,67.05
2023-04-17T09:40:53.095Z,67.26
2023-04-17T09:41:53.077Z,67.56
2023-04-17T09:42:53.068Z,67.35
2023-04-17T09:43:53.053Z,67.35
2023-04-17T09:44:53.038Z,67.05
2023-04-17T09:45:53.030Z,67.15
2023-04-17T09:46:53.084Z,67.32
2023-04-17T09:47:53.087Z,67.63
2023-04-17T09:48:52.987Z,67.32
2023-04-17T09:49:53.076Z,68.35
2023-04-17T09:50:52.961Z,67.73
2023-04-17T09:51:52.940Z,67.73
2023-04-17T09:52:52.938Z,68.24
2023-04-17T09:53:52.919Z,68.55
2023-04-17T09:54:52.903Z,68.96
2023-04-17T09:55:52.889Z,68.96
2023-04-17T09:56:52.882Z,68.45
2023-04-17T09:57:52.859Z,68.04
2023-04-17T09:58:52.852Z,68.04
2023-04-17T09:59:52.833Z,67.84
2023-04-17T10:00:52.897Z,68.14
2023-04-17T10:01:52.939Z,68.35
2023-04-17T10:02:52.910Z,68.45
2023-04-17T10:03:53.235Z,68.96
2023-04-17T10:04:52.768Z,68.86
2023-04-17T10:05:52.752Z,68.76
2023-04-17T10:06:52.751Z,68.76
2023-04-17T10:07:52.727Z,68.76
2023-04-17T10:08:52.715Z,69.06
2023-04-17T10:09:52.702Z,68.45
2023-04-17T10:10:52.682Z,68.45
2023-04-17T10:11:52.675Z,68.65
2023-04-17T10:12:52.663Z,68.04
2023-04-17T10:13:52.646Z,68.24
2023-04-17T10:14:52.637Z,67.94
2023-04-17T10:15:52.619Z,68.14
2023-04-17T10:16:52.699Z,68.04
2023-04-17T10:17:52.709Z,68.24
2023-04-17T10:18:52.580Z,68.55
2023-04-17T10:19:52.587Z,68.55
2023-04-17T10:20:52.553Z,68.55
2023-04-17T10:21:52.538Z,68.96
2023-04-17T10:22:52.519Z,69.06
2023-04-17T10:23:52.515Z,68.35
2023-04-17T10:24:52.501Z,67.23
2023-04-17T10:25:52.479Z,67.53
2023-04-17T10:26:52.465Z,67.94
2023-04-17T10:27:52.463Z,68.24
2023-04-17T10:28:52.448Z,68.45
2023-04-17T10:29:52.431Z,67.94
2023-04-17T10:30:52.451Z,67.84
2023-04-17T10:31:52.475Z,67.63
2023-04-17T10:32:52.450Z,67.73
2023-04-17T10:33:52.381Z,67.23
2023-04-17T10:34:52.370Z,67.12
2023-04-17T10:35:52.416Z,66.81
2023-04-17T10:36:52.367Z,67.02
2023-04-17T10:37:52.354Z,66.61
2023-04-17T10:38:52.310Z,67.12
2023-04-17T10:39:52.294Z,67.12
2023-04-17T10:40:52.280Z,67.12
2023-04-17T10:41:52.288Z,66.61
2023-04-17T10:42:52.271Z,66.40
2023-04-17T10:43:52.256Z,66.61
2023-04-17T10:44:52.247Z,66.91
2023-04-17T10:45:52.231Z,66.10
2023-04-17T10:46:52.204Z,66.51
2023-04-17T10:47:52.197Z,66.40
2023-04-17T10:48:52.319Z,66.10
2023-04-17T10:49:52.161Z,65.99
2023-04-17T10:50:52.159Z,64.77
2023-04-17T10:51:52.209Z,65.07
2023-04-17T10:52:52.125Z,65.58
2023-04-17T10:53:52.106Z,66.30
2023-04-17T10:54:52.094Z,65.99
2023-04-17T10:55:52.080Z,65.49
2023-04-17T10:56:52.071Z,65.17
2023-04-17T10:57:52.061Z,65.49
2023-04-17T10:58:52.055Z,65.17
2023-04-17T10:59:52.028Z,65.58
2023-04-17T11:00:52.100Z,65.38
2023-04-17T11:01:52.129Z,64.87
2023-04-17T11:02:52.034Z,65.58
2023-04-17T11:03:51.977Z,65.99
2023-04-17T11:04:51.989Z,65.99
2023-04-17T11:05:51.993Z,65.99
2023-04-17T11:06:51.930Z,65.99
2023-04-17T11:07:51.968Z,65.38
2023-04-17T11:08:51.907Z,65.07
2023-04-17T11:09:51.891Z,64.97
2023-04-17T11:10:51.884Z,64.66
2023-04-17T11:11:51.868Z,65.28
2023-04-17T11:12:51.862Z,64.97
2023-04-17T11:13:51.838Z,64.97
2023-04-17T11:14:51.827Z,64.16
2023-04-17T11:15:51.810Z,64.66
2023-04-17T11:16:51.929Z,63.84
2023-04-17T11:17:51.855Z,63.81
2023-04-17T11:18:51.772Z,63.81
2023-04-17T11:19:51.760Z,63.81
2023-04-17T11:20:51.749Z,64.25
2023-04-17T11:21:51.736Z,63.64
2023-04-17T11:22:51.718Z,64.25
2023-04-17T11:23:51.735Z,64.66
2023-04-17T11:24:51.695Z,63.84
2023-04-17T11:25:51.682Z,63.54
2023-04-17T11:26:51.689Z,64.16
2023-04-17T11:27:51.651Z,64.36
2023-04-17T11:28:51.633Z,64.25
2023-04-17T11:29:51.622Z,63.95
2023-04-17T11:30:51.637Z,64.46
2023-04-17T11:31:51.611Z,63.95
2023-04-17T11:32:51.706Z,64.46
2023-04-17T11:33:51.566Z,64.97
2023-04-17T11:34:51.557Z,64.56
2023-04-17T11:35:51.545Z,63.64
2023-04-17T11:36:51.539Z,63.95
2023-04-17T11:37:51.517Z,63.43
2023-04-17T11:38:52.199Z,63.13
2023-04-17T11:39:51.519Z,62.62
2023-04-17T11:40:51.486Z,62.42
2023-04-17T11:41:51.463Z,62.21
2023-04-17T11:42:51.448Z,62.82
2023-04-17T11:43:51.445Z,63.54
2023-04-17T11:44:51.430Z,63.33
2023-04-17T11:45:51.441Z,63.54
2023-04-17T11:46:51.421Z,62.82
2023-04-17T11:47:51.410Z,62.79
2023-04-17T11:48:51.371Z,62.90
2023-04-17T11:49:51.362Z,63.40
2023-04-17T11:50:51.346Z,63.51
2023-04-17T11:51:51.334Z,63.72
2023-04-17T11:52:51.324Z,63.43
2023-04-17T11:53:51.304Z,63.00
2023-04-17T11:54:51.291Z,63.31
2023-04-17T11:55:51.300Z,63.31
2023-04-17T11:56:51.261Z,63.51
2023-04-17T11:57:51.255Z,62.69
2023-04-17T11:58:51.245Z,62.49
2023-04-17T11:59:51.226Z,63.00
2023-04-17T12:00:51.210Z,62.49
2023-04-17T12:01:51.268Z,62.79
2023-04-17T12:02:51.304Z,61.98
2023-04-17T12:03:51.296Z,61.98
2023-04-17T12:04:51.274Z,61.98
2023-04-17T12:05:51.195Z,61.87
2023-04-17T12:06:51.130Z,62.69
2023-04-17T12:07:51.117Z,62.90
2023-04-17T12:08:51.113Z,62.18
2023-04-17T12:09:51.084Z,61.87
2023-04-17T12:10:51.077Z,62.18
2023-04-17T12:11:51.088Z,62.07
2023-04-17T12:12:51.051Z,62.18
2023-04-17T12:13:51.036Z,61.57
2023-04-17T12:14:51.028Z,62.07
2023-04-17T12:15:51.051Z,61.98
2023-04-17T12:16:50.996Z,61.46
2023-04-17T12:17:51.004Z,61.87
2023-04-17T12:18:50.975Z,61.36
2023-04-17T12:19:50.965Z,61.57
2023-04-17T12:20:50.946Z,61.57
2023-04-17T12:21:50.928Z,61.46
2023-04-17T12:22:50.917Z,62.07
2023-04-17T12:23:50.907Z,61.77
2023-04-17T12:24:50.886Z,61.46
2023-04-17T12:25:50.886Z,61.57
2023-04-17T12:26:50.874Z,61.66
2023-04-17T12:27:50.879Z,61.46
2023-04-17T12:28:50.836Z,60.85
2023-04-17T12:29:50.819Z,61.46
2023-04-17T12:30:50.821Z,61.77
2023-04-17T12:31:50.813Z,61.05
2023-04-17T12:32:50.787Z,60.85
2023-04-17T12:33:50.782Z,61.05
2023-04-17T12:34:50.757Z,61.05
2023-04-17T12:35:50.818Z,60.54
2023-04-17T12:36:50.731Z,60.44
2023-04-17T12:37:50.711Z,61.16
2023-04-17T12:38:50.702Z,61.05
2023-04-17T12:39:50.687Z,60.95
2023-04-17T12:40:50.677Z,61.26
2023-04-17T12:41:50.660Z,61.57
2023-04-17T12:42:50.653Z,60.85
2023-04-17T12:43:50.660Z,60.95
2023-04-17T12:44:50.624Z,61.16
2023-04-17T12:45:50.662Z,61.16
2023-04-17T12:46:50.610Z,60.95
2023-04-17T12:47:50.629Z,61.36
2023-04-17T12:48:50.591Z,60.65
2023-04-17T12:49:50.553Z,61.16
2023-04-17T12:50:50.539Z,60.41
2023-04-17T12:51:50.524Z,60.85
2023-04-17T12:52:50.513Z,61.16